Time;durP1;ratioP1;P1;durP2;ratioP2;P2;SDS_P1;SDS_P2;PMS_P1;PMS_P2;Temp;Humidity;BMP_temperature;BMP_pressure;BME280_temperature;BME280_humidity;BME280_pressure;Samples;Min_cycle;Max_cycle;Signal;HPM_P1;HPM_P2
2021/03/23 17:55:32;;;;;;;3.30;1.25;;;;;;;-0.18;100.00;98603.97;1753476;79;22813;-63
2021/03/23 17:58:02;;;;;;;1.87;1.20;;;;;;;0.16;100.00;98604.05;1721988;82;21132;-61
2021/03/23 18:00:33;;;;;;;3.27;2.00;;;;;;;0.35;100.00;98604.52;1733568;82;22046;-64
2021/03/23 18:03:04;;;;;;;1.60;1.00;;;;;;;0.47;100.00;98610.89;1675677;84;21151;-63
2021/03/23 18:05:36;;;;;;;3.17;0.93;;;;;;;0.51;100.00;98611.46;1680794;84;21132;-63
2021/03/23 18:08:05;;;;;;;6.33;2.58;;;;;;;0.61;100.00;98612.14;1685446;84;21190;-63
2021/03/23 18:10:35;;;;;;;5.55;2.80;;;;;;;0.70;100.00;98617.10;1675785;84;21037;-62
2021/03/23 18:13:06;;;;;;;3.30;1.82;;;;;;;0.76;100.00;98614.65;1672073;85;21175;-64
2021/03/23 18:15:38;;;;;;;3.67;1.87;;;;;;;0.77;100.00;98612.51;1684249;84;21596;-64
2021/03/23 18:18:07;;;;;;;3.52;2.05;;;;;;;0.82;100.00;98613.08;1703443;83;21038;-64
2021/03/23 18:20:37;;;;;;;4.08;2.00;;;;;;;0.92;100.00;98620.23;1703625;83;21635;-64
2021/03/23 18:23:06;;;;;;;4.83;3.33;;;;;;;0.98;100.00;98619.53;1699720;84;21054;-64
2021/03/23 18:25:35;;;;;;;3.27;1.98;;;;;;;1.03;100.00;98612.73;1654734;84;21705;-61
2021/03/23 18:28:06;;;;;;;4.22;2.02;;;;;;;1.10;100.00;98609.84;1687693;83;21783;-63
2021/03/23 18:30:35;;;;;;;4.33;2.40;;;;;;;1.14;100.00;98608.64;1688132;84;21184;-63
2021/03/23 18:33:08;;;;;;;6.25;3.10;;;;;;;1.16;100.00;98606.96;1694798;84;21029;-63
2021/03/23 18:35:38;;;;;;;6.87;3.02;;;;;;;1.18;100.00;98600.50;1673219;84;21582;-63
2021/03/23 18:38:08;;;;;;;6.40;3.22;;;;;;;1.19;100.00;98610.05;1681557;82;21220;-64
2021/03/23 18:40:38;;;;;;;4.40;2.25;;;;;;;1.20;100.00;98612.67;1675328;84;21001;-63
2021/03/23 18:43:08;;;;;;;2.60;1.70;;;;;;;1.23;100.00;98619.24;1675732;84;21157;-63
2021/03/23 18:45:41;;;;;;;3.77;1.67;;;;;;;1.21;100.00;98612.26;1688209;83;21025;-63
2021/03/23 18:48:11;;;;;;;3.47;1.85;;;;;;;1.20;100.00;98614.40;1677882;84;21022;-63
2021/03/23 18:50:42;;;;;;;2.72;1.90;;;;;;;1.22;100.00;98624.41;1675778;85;21164;-63
2021/03/23 18:53:12;;;;;;;4.20;2.40;;;;;;;1.18;100.00;98619.98;1681537;82;21201;-63
2021/03/23 18:55:43;;;;;;;2.67;1.72;;;;;;;1.17;100.00;98621.70;1670032;84;21165;-65
2021/03/23 18:58:16;;;;;;;2.70;1.90;;;;;;;1.16;100.00;98627.74;1671038;84;21067;-63
2021/03/23 19:00:49;;;;;;;3.92;2.17;;;;;;;1.15;100.00;98631.19;1674859;84;21142;-63
2021/03/23 19:03:26;;;;;;;5.10;3.52;;;;;;;1.18;100.00;98628.66;1673487;84;21322;-64
2021/03/23 19:05:58;;;;;;;6.25;3.42;;;;;;;1.19;100.00;98633.43;1686089;82;21029;-64
2021/03/23 19:08:27;;;;;;;7.42;3.83;;;;;;;1.20;100.00;98634.76;1727292;82;21560;-65
2021/03/23 19:10:57;;;;;;;5.95;2.75;;;;;;;1.21;100.00;98635.64;1727798;82;20939;-65
2021/03/23 19:13:28;;;;;;;4.08;2.45;;;;;;;1.23;100.00;98637.42;1730941;82;21018;-63
2021/03/23 19:15:57;;;;;;;3.47;2.17;;;;;;;1.25;100.00;98640.06;1706296;82;22410;-64
2021/03/23 19:18:31;;;;;;;4.37;2.45;;;;;;;1.24;100.00;98642.20;1728257;81;21034;-65
2021/03/23 19:21:00;;;;;;;2.83;1.62;;;;;;;1.16;100.00;98640.73;1701671;82;21524;-64
2021/03/23 19:23:31;;;;;;;3.25;2.08;;;;;;;1.09;100.00;98640.14;1692804;82;20944;-64
2021/03/23 19:26:00;;;;;;;2.62;1.80;;;;;;;1.04;100.00;98639.58;1692642;82;21133;-65
2021/03/23 19:28:30;;;;;;;4.72;2.30;;;;;;;1.01;100.00;98641.68;1680527;84;21379;-65
2021/03/23 19:31:01;;;;;;;3.95;1.85;;;;;;;0.98;100.00;98633.81;1685446;83;20965;-64
2021/03/23 19:33:31;;;;;;;3.45;2.30;;;;;;;0.98;100.00;98636.41;1691479;84;21084;-65
2021/03/23 19:36:01;;;;;;;3.90;2.30;;;;;;;0.85;100.00;98631.32;1667731;86;21018;-65
2021/03/23 19:38:31;;;;;;;6.37;2.83;;;;;;;0.85;100.00;98638.23;1710491;82;21142;-65
2021/03/23 19:41:00;;;;;;;4.30;2.95;;;;;;;0.83;100.00;98638.62;1724985;81;21263;-65
2021/03/23 19:43:33;;;;;;;3.70;3.00;;;;;;;0.78;100.00;98638.51;1728665;81;21081;-64
2021/03/23 19:46:04;;;;;;;2.75;1.87;;;;;;;0.77;100.00;98630.27;1729739;82;21156;-64
2021/03/23 19:48:35;;;;;;;2.92;1.98;;;;;;;0.78;100.00;98635.03;1714045;82;21599;-65
2021/03/23 19:51:06;;;;;;;2.92;1.60;;;;;;;0.77;100.00;98636.75;1714097;82;21033;-64
2021/03/23 19:53:35;;;;;;;1.92;1.47;;;;;;;0.79;100.00;98635.49;1719140;82;22124;-65
2021/03/23 19:56:06;;;;;;;2.77;1.47;;;;;;;0.78;100.00;98634.61;1735656;81;21243;-68
2021/03/23 19:58:35;;;;;;;3.62;2.17;;;;;;;0.80;100.00;98631.63;1734174;80;21584;-65
2021/03/23 20:01:05;;;;;;;3.02;1.75;;;;;;;0.83;100.00;98638.20;1695294;82;21101;-66
2021/03/23 20:03:35;;;;;;;4.40;1.80;;;;;;;0.88;100.00;98635.71;1731044;80;21141;-65
2021/03/23 20:06:05;;;;;;;4.05;2.08;;;;;;;0.93;100.00;98634.98;1719783;82;21448;-65
2021/03/23 20:08:34;;;;;;;4.17;2.15;;;;;;;0.97;100.00;98641.57;1719651;83;21168;-65
2021/03/23 20:11:05;;;;;;;5.28;2.08;;;;;;;0.97;100.00;98639.86;1742076;80;21149;-65
2021/03/23 20:13:34;;;;;;;5.60;2.50;;;;;;;0.96;100.00;98641.99;1721768;82;21651;-64
2021/03/23 20:16:05;;;;;;;3.30;2.02;;;;;;;0.93;100.00;98640.17;1721716;82;21587;-67
2021/03/23 20:18:35;;;;;;;7.42;3.42;;;;;;;0.98;100.00;98640.31;1745734;80;22291;-65
2021/03/23 20:21:06;;;;;;;8.40;3.25;;;;;;;1.04;100.00;98638.27;1748910;80;21049;-66
2021/03/23 20:23:39;;;;;;;7.50;3.35;;;;;;;1.05;100.00;98639.61;1677198;84;21157;-65
2021/03/23 20:26:13;;;;;;;7.72;3.58;;;;;;;1.07;100.00;98638.34;1728336;82;20939;-65
2021/03/23 20:28:42;;;;;;;5.92;2.90;;;;;;;1.05;100.00;98643.50;1729149;80;21623;-65
2021/03/23 20:31:11;;;;;;;6.78;3.20;;;;;;;1.03;100.00;98643.89;1738422;82;21409;-64
2021/03/23 20:33:41;;;;;;;7.40;3.65;;;;;;;0.99;100.00;98645.08;1719686;83;20946;-64
2021/03/23 20:36:17;;;;;;;9.53;4.62;;;;;;;0.97;100.00;98643.75;1669898;84;20971;-66
2021/03/23 20:38:46;;;;;;;6.42;3.45;;;;;;;1.00;100.00;98645.54;1727188;80;20982;-65
2021/03/23 20:41:29;;;;;;;6.53;3.77;;;;;;;1.01;100.00;98642.98;1749707;80;20978;-65
2021/03/23 20:43:59;;;;;;;4.58;2.80;;;;;;;1.02;100.00;98642.55;1749474;82;21559;-66
2021/03/23 20:46:30;;;;;;;2.95;2.17;;;;;;;0.96;100.00;98634.63;1749506;80;21592;-65
2021/03/23 20:49:01;;;;;;;2.72;2.10;;;;;;;0.91;100.00;98638.38;1728275;82;21553;-64
2021/03/23 20:51:31;;;;;;;3.27;1.95;;;;;;;0.85;100.00;98628.72;1719851;82;21547;-65
2021/03/23 20:54:01;;;;;;;3.17;1.80;;;;;;;0.83;100.00;98634.30;1719606;82;21238;-65
2021/03/23 20:56:31;;;;;;;3.90;1.92;;;;;;;0.79;100.00;98628.58;1692572;83;21375;-65
2021/03/23 20:59:01;;;;;;;3.00;1.92;;;;;;;0.78;100.00;98621.63;1691319;83;21517;-64
2021/03/23 21:01:31;;;;;;;3.70;1.72;;;;;;;0.69;100.00;98624.43;1691382;83;21014;-64
2021/03/23 21:04:00;;;;;;;3.92;2.10;;;;;;;0.65;100.00;98621.30;1708318;82;21185;-66
2021/03/23 21:06:30;;;;;;;3.20;1.90;;;;;;;0.61;100.00;98616.03;1707618;82;20923;-65
2021/03/23 21:09:00;;;;;;;3.83;2.30;;;;;;;0.55;100.00;98624.97;1733233;81;21202;-66
2021/03/23 21:11:34;;;;;;;3.77;2.10;;;;;;;0.57;100.00;98619.81;1706174;82;21617;-65
2021/03/23 21:14:09;;;;;;;2.37;1.67;;;;;;;0.53;100.00;98621.87;1706086;84;21184;-66
2021/03/23 21:16:38;;;;;;;4.50;1.92;;;;;;;0.50;100.00;98624.40;1719959;82;21488;-65
2021/03/23 21:19:10;;;;;;;2.80;1.60;;;;;;;0.45;100.00;98621.66;1716558;82;21073;-66
2021/03/23 21:21:42;;;;;;;5.03;2.12;;;;;;;0.41;100.00;98617.65;1734708;81;21212;-66
2021/03/23 21:24:12;;;;;;;5.00;2.02;;;;;;;0.37;100.00;98620.59;1735607;82;20959;-65
2021/03/23 21:26:46;;;;;;;2.55;1.92;;;;;;;0.37;100.00;98610.20;1712531;81;21070;-66
2021/03/23 21:29:16;;;;;;;2.83;2.17;;;;;;;0.30;100.00;98615.66;1735508;81;20999;-66
2021/03/23 21:31:47;;;;;;;4.90;2.00;;;;;;;0.31;100.00;98623.02;1723108;82;21573;-66
2021/03/23 21:34:18;;;;;;;3.90;2.40;;;;;;;0.33;100.00;98617.88;1706027;82;21369;-66
2021/03/23 21:36:47;;;;;;;4.45;2.50;;;;;;;0.34;100.00;98620.92;1660256;85;21837;-65
2021/03/23 21:39:21;;;;;;;6.22;3.50;;;;;;;0.33;100.00;98626.53;1706117;82;21501;-65
2021/03/23 21:41:50;;;;;;;4.40;2.70;;;;;;;0.36;100.00;98630.50;1706125;82;20943;-66
2021/03/23 21:44:22;;;;;;;3.55;2.42;;;;;;;0.40;100.00;98632.34;1654997;85;21255;-68
2021/03/23 21:46:52;;;;;;;5.97;2.80;;;;;;;0.40;100.00;98623.26;1733935;82;21377;-66
2021/03/23 21:49:24;;;;;;;5.95;2.60;;;;;;;0.43;100.00;98635.01;1670626;85;21644;-66
2021/03/23 21:51:58;;;;;;;5.40;2.45;;;;;;;0.44;100.00;98625.09;1733830;82;21063;-66
2021/03/23 21:54:38;;;;;;;3.37;1.90;;;;;;;0.44;100.00;98623.80;1733502;82;20992;-64
2021/03/23 21:57:09;;;;;;;3.77;1.92;;;;;;;0.43;100.00;98616.84;1733960;82;20999;-63
2021/03/23 21:59:42;;;;;;;3.62;1.92;;;;;;;0.39;100.00;98630.58;1733787;82;20916;-65
2021/03/23 22:02:12;;;;;;;3.75;2.00;;;;;;;0.31;100.00;98626.91;1713598;82;21624;-65
2021/03/23 22:04:43;;;;;;;5.03;2.12;;;;;;;0.29;100.00;98628.59;1670774;85;21022;-65
2021/03/23 22:07:13;;;;;;;4.67;2.20;;;;;;;0.27;100.00;98624.66;1651761;86;21078;-65
2021/03/23 22:09:42;;;;;;;2.75;1.90;;;;;;;0.25;100.00;98629.35;1651544;85;21099;-65
2021/03/23 22:12:11;;;;;;;3.00;1.87;;;;;;;0.25;100.00;98627.64;1670663;86;21222;-65
2021/03/23 22:14:41;;;;;;;3.60;1.98;;;;;;;0.30;100.00;98627.34;1670673;85;21157;-64
2021/03/23 22:17:12;;;;;;;2.98;1.87;;;;;;;0.32;100.00;98626.08;1733898;82;21110;-65
2021/03/23 22:19:43;;;;;;;4.40;2.17;;;;;;;0.34;100.00;98623.52;1732370;82;21177;-66
2021/03/23 22:22:14;;;;;;;5.20;2.40;;;;;;;0.36;100.00;98624.02;1720959;82;21063;-64
2021/03/23 22:24:44;;;;;;;3.05;1.95;;;;;;;0.39;100.00;98622.80;1720940;82;21368;-64
2021/03/23 22:27:14;;;;;;;4.95;2.33;;;;;;;0.36;100.00;98616.23;1720857;82;21158;-65
2021/03/23 22:29:44;;;;;;;3.35;1.70;;;;;;;0.39;100.00;98616.31;1720958;82;21654;-65
2021/03/23 22:32:14;;;;;;;2.20;1.67;;;;;;;0.39;100.00;98611.13;1721012;82;21162;-65
2021/03/23 22:34:44;;;;;;;6.12;2.22;;;;;;;0.41;100.00;98621.13;1721015;82;21558;-65
2021/03/23 22:37:18;;;;;;;3.15;2.00;;;;;;;0.41;100.00;98614.63;1720922;82;21376;-65
2021/03/23 22:39:51;;;;;;;4.80;2.20;;;;;;;0.41;100.00;98609.45;1721054;82;21584;-65
2021/03/23 22:42:20;;;;;;;4.53;2.37;;;;;;;0.46;100.00;98616.05;1721175;82;21150;-64
2021/03/23 22:44:51;;;;;;;3.77;2.40;;;;;;;0.47;100.00;98616.50;1721075;82;21732;-64
2021/03/23 22:47:21;;;;;;;2.95;1.80;;;;;;;0.45;100.00;98604.79;1721199;82;21184;-64
2021/03/23 22:49:51;;;;;;;3.12;1.90;;;;;;;0.41;100.00;98602.08;1721240;82;22267;-65
2021/03/23 22:52:22;;;;;;;4.67;2.05;;;;;;;0.40;100.00;98616.77;1719754;82;21198;-65
2021/03/23 22:54:53;;;;;;;3.50;2.05;;;;;;;0.38;100.00;98604.59;1728520;81;21581;-66
2021/03/23 22:57:22;;;;;;;3.27;2.00;;;;;;;0.41;100.00;98608.15;1749240;82;21084;-67
2021/03/23 22:59:52;;;;;;;3.40;2.00;;;;;;;0.43;100.00;98597.39;1711595;82;21097;-66
2021/03/23 23:02:23;;;;;;;3.75;2.15;;;;;;;0.44;100.00;98595.25;1736833;80;22166;-66
2021/03/23 23:04:54;;;;;;;3.47;2.17;;;;;;;0.45;100.00;98606.09;1695228;82;21203;-67
2021/03/23 23:07:24;;;;;;;2.45;1.55;;;;;;;0.49;100.00;98611.84;1733986;82;21169;-66
2021/03/23 23:09:54;;;;;;;4.17;2.12;;;;;;;0.51;100.00;98597.61;1735893;82;21117;-67
2021/03/23 23:12:25;;;;;;;3.67;2.45;;;;;;;0.52;100.00;98605.44;1735020;82;21142;-64
2021/03/23 23:14:55;;;;;;;4.70;1.65;;;;;;;0.56;100.00;98606.38;1732878;80;21150;-65
2021/03/23 23:17:25;;;;;;;5.70;1.90;;;;;;;0.53;100.00;98612.80;1733651;80;21572;-66
2021/03/23 23:19:56;;;;;;;4.17;2.00;;;;;;;0.53;100.00;98617.56;1735909;82;20962;-66
2021/03/23 23:22:26;;;;;;;3.65;2.05;;;;;;;0.52;100.00;98623.59;1734371;82;21104;-65
2021/03/23 23:24:56;;;;;;;5.62;2.20;;;;;;;0.52;100.00;98618.83;1732752;82;21121;-66
2021/03/23 23:27:27;;;;;;;5.15;2.27;;;;;;;0.53;100.00;98625.35;1704995;82;21544;-65
2021/03/23 23:29:57;;;;;;;4.08;2.08;;;;;;;0.56;100.00;98607.27;1749739;82;21117;-65
2021/03/23 23:32:27;;;;;;;4.22;2.40;;;;;;;0.54;100.00;98623.64;1749778;82;21580;-65
2021/03/23 23:34:57;;;;;;;6.30;2.80;;;;;;;0.58;100.00;98625.05;1749763;80;21006;-64
2021/03/23 23:37:27;;;;;;;6.90;2.80;;;;;;;0.61;100.00;98624.25;1749814;80;21120;-64
2021/03/23 23:39:58;;;;;;;5.90;2.30;;;;;;;0.66;100.00;98629.13;1749927;80;21480;-64
2021/03/23 23:42:29;;;;;;;4.17;2.33;;;;;;;0.68;100.00;98631.76;1711586;82;21507;-63
2021/03/23 23:45:00;;;;;;;4.70;2.10;;;;;;;0.68;100.00;98627.86;1749792;80;20919;-64
2021/03/23 23:47:30;;;;;;;4.78;2.10;;;;;;;0.65;100.00;98622.59;1711374;82;21005;-64
2021/03/23 23:50:00;;;;;;;2.75;1.98;;;;;;;0.62;100.00;98631.19;1749803;81;21050;-62
2021/03/23 23:52:31;;;;;;;3.92;2.37;;;;;;;0.59;100.00;98637.60;1749735;82;21415;-63
2021/03/23 23:55:02;;;;;;;3.55;2.40;;;;;;;0.59;100.00;98631.11;1749727;82;21073;-63
2021/03/23 23:57:33;;;;;;;3.95;2.50;;;;;;;0.57;100.00;98628.91;1720618;82;21281;-63
